Time;durP1;ratioP1;P1;durP2;ratioP2;P2;SDS_P1;SDS_P2;PMS_P1;PMS_P2;Temp;Humidity;BMP_temperature;BMP_pressure;BME280_temperature;BME280_humidity;BME280_pressure;Samples;Min_cycle;Max_cycle;Signal;HPM_P1;HPM_P2
2022/12/24 00:02:19;;;;;;;;;;;;;;;1.33;91.23;98817.56;5087069;28;19928;-65
2022/12/24 00:04:44;;;;;;;;;;;;;;;1.33;91.25;98820.25;5086571;28;20295;-65
2022/12/24 00:07:10;;;;;;;;;;;;;;;1.32;91.34;98832.09;5085426;28;19928;-65
2022/12/24 00:09:36;;;;;;;;;;;;;;;1.31;91.21;98809.69;5084601;28;19932;-65
2022/12/24 00:12:03;;;;;;;;;;;;;;;1.30;91.33;98824.22;5081815;28;19988;-66
2022/12/24 00:14:29;;;;;;;;;;;;;;;1.28;91.66;98834.44;5086687;28;19928;-66
2022/12/24 00:16:55;;;;;;;;;;;;;;;1.31;91.48;98819.69;5086963;28;19997;-67
2022/12/24 00:19:20;;;;;;;;;;;;;;;1.34;91.59;98827.28;5085243;28;20322;-65
2022/12/24 00:21:46;;;;;;;;;;;;;;;1.36;91.58;98833.25;5094690;28;20403;-65
2022/12/24 00:24:12;;;;;;;;;;;;;;;1.35;91.35;98821.66;5108187;28;19927;-65
2022/12/24 00:26:37;;;;;;;;;;;;;;;1.35;91.61;98823.53;5106715;28;20246;-67
2022/12/24 00:29:05;;;;;;;;;;;;;;;1.36;91.51;98807.13;5104910;28;20007;-65
2022/12/24 00:31:31;;;;;;;;;;;;;;;1.33;91.26;98812.16;5102623;28;19954;-68
2022/12/24 00:33:56;;;;;;;;;;;;;;;1.29;91.68;98819.91;5084419;28;19932;-68
2022/12/24 00:36:22;;;;;;;;;;;;;;;1.32;91.73;98821.31;5097590;28;19927;-68
2022/12/24 00:38:48;;;;;;;;;;;;;;;1.34;91.84;98819.19;5106426;28;20498;-70
2022/12/24 00:41:23;;;;;;;;;;;;;;;1.36;91.85;98825.16;5095420;28;20403;-69
2022/12/24 00:43:49;;;;;;;;;;;;;;;1.29;91.96;98808.31;5085641;28;19928;-68
2022/12/24 00:46:16;;;;;;;;;;;;;;;1.41;91.92;98820.69;5097819;28;19932;-68
2022/12/24 00:48:42;;;;;;;;;;;;;;;1.38;91.95;98810.41;5106490;28;19934;-68
2022/12/24 00:51:07;;;;;;;;;;;;;;;1.38;91.91;98810.41;5084853;28;19928;-67
2022/12/24 00:53:33;;;;;;;;;;;;;;;1.41;91.88;98819.91;5088311;28;19928;-68
2022/12/24 00:55:59;;;;;;;;;;;;;;;1.39;91.87;98825.50;5087280;28;19934;-68
2022/12/24 00:58:24;;;;;;;;;;;;;;;1.42;92.02;98837.69;5084883;28;20326;-67
2022/12/24 01:00:50;;;;;;;;;;;;;;;1.41;91.78;98834.16;5084874;28;19928;-67
2022/12/24 01:03:17;;;;;;;;;;;;;;;1.39;91.78;98832.75;5085126;28;20495;-68
2022/12/24 01:05:43;;;;;;;;;;;;;;;1.35;91.99;98832.44;5085334;28;19980;-68
2022/12/24 01:08:09;;;;;;;;;;;;;;;1.32;92.05;98830.19;5087584;28;19932;-68
2022/12/24 01:10:34;;;;;;;;;;;;;;;1.34;92.19;98851.53;5090561;28;20050;-68
2022/12/24 01:13:01;;;;;;;;;;;;;;;1.31;92.01;98836.63;5092775;28;19927;-65
2022/12/24 01:15:27;;;;;;;;;;;;;;;1.33;92.08;98828.34;5089954;28;19936;-68
2022/12/24 01:17:53;;;;;;;;;;;;;;;1.31;92.02;98831.25;5087080;28;19953;-68
2022/12/24 01:20:20;;;;;;;;;;;;;;;1.33;92.00;98833.72;5084270;28;19928;-68
2022/12/24 01:22:47;;;;;;;;;;;;;;;1.31;92.00;98831.25;5086382;28;19932;-68
2022/12/24 01:25:13;;;;;;;;;;;;;;;1.31;92.04;98833.94;5084561;28;19935;-68
2022/12/24 01:27:39;;;;;;;;;;;;;;;1.33;91.94;98831.03;5083297;28;19928;-66
2022/12/24 01:30:05;;;;;;;;;;;;;;;1.32;91.84;98832.09;5087808;28;20438;-65
2022/12/24 01:32:31;;;;;;;;;;;;;;;1.31;91.93;98836.63;5086255;28;20035;-65
2022/12/24 01:34:56;;;;;;;;;;;;;;;1.29;91.92;98824.47;5088157;28;20027;-64
2022/12/24 01:37:23;;;;;;;;;;;;;;;1.32;91.94;98830.19;5088136;28;20326;-65
2022/12/24 01:39:49;;;;;;;;;;;;;;;1.32;91.73;98834.78;5052808;28;19993;-65
2022/12/24 01:45:36;;;;;;;;;;;;;;;1.34;91.71;98835.34;5086629;28;19928;-65
2022/12/24 01:48:03;;;;;;;;;;;;;;;1.35;91.62;98827.06;4981389;28;19940;-65
2022/12/24 01:50:28;;;;;;;;;;;;;;;1.36;91.69;98833.25;5021929;28;19940;-64
2022/12/24 01:52:56;;;;;;;;;;;;;;;1.36;91.56;98833.25;5025696;28;19933;-65
2022/12/24 01:55:23;;;;;;;;;;;;;;;1.33;91.69;98842.63;5024126;28;20390;-65
2022/12/24 01:57:52;;;;;;;;;;;;;;;1.32;91.63;98840.97;4999844;28;19929;-65
2022/12/24 02:00:18;;;;;;;;;;;;;;;1.33;91.77;98848.03;5020424;28;20031;-65
2022/12/24 02:02:46;;;;;;;;;;;;;;;1.32;91.65;98850.94;5021416;28;19929;-65
2022/12/24 02:05:14;;;;;;;;;;;;;;;1.32;91.65;98845.56;5030264;28;19979;-67
2022/12/24 02:07:39;;;;;;;;;;;;;;;1.28;91.53;98831.72;5008813;28;20408;-68
2022/12/24 02:10:10;;;;;;;;;;;;;;;1.25;91.71;98859.16;5022649;28;19975;-68
2022/12/24 02:12:36;;;;;;;;;;;;;;;1.27;91.75;98847.09;5023051;28;20262;-65
2022/12/24 02:15:03;;;;;;;;;;;;;;;1.30;91.85;98840.38;5022589;28;20016;-66
2022/12/24 02:17:31;;;;;;;;;;;;;;;1.34;91.67;98843.44;5038975;28;20361;-65
2022/12/24 02:20:24;;;;;;;;;;;;;;;1.37;91.48;98853.72;5100534;28;20448;-65
2022/12/24 02:23:02;;;;;;;;;;;;;;;1.38;91.49;98842.72;5037003;28;20295;-65
2022/12/24 02:25:40;;;;;;;;;;;;;;;1.42;91.10;98846.56;5087343;28;19928;-65
2022/12/24 02:28:12;;;;;;;;;;;;;;;1.44;91.19;98854.44;5087792;28;19928;-65
2022/12/24 02:30:42;;;;;;;;;;;;;;;1.45;90.94;98857.94;5083446;28;20038;-65
2022/12/24 02:33:13;;;;;;;;;;;;;;;1.42;90.82;98859.25;5082557;28;19967;-65
2022/12/24 02:35:43;;;;;;;;;;;;;;;1.39;90.68;98855.13;5090156;28;19963;-65
2022/12/24 02:38:12;;;;;;;;;;;;;;;1.39;90.68;98868.63;5102766;28;19928;-65
2022/12/24 02:40:41;;;;;;;;;;;;;;;1.35;90.81;98861.22;5105241;28;20426;-64
2022/12/24 02:43:09;;;;;;;;;;;;;;;1.34;90.78;98855.03;5105050;28;19932;-66
2022/12/24 02:45:37;;;;;;;;;;;;;;;1.31;90.68;98850.09;5104096;28;19928;-65
2022/12/24 02:48:05;;;;;;;;;;;;;;;1.31;90.91;98855.50;5103048;28;19928;-66
2022/12/24 02:50:31;;;;;;;;;;;;;;;1.29;91.02;98856.81;5091747;28;20424;-65
2022/12/24 02:52:57;;;;;;;;;;;;;;;1.31;91.02;98852.00;5104053;28;19971;-65
2022/12/24 02:55:28;;;;;;;;;;;;;;;1.35;91.08;98853.16;5097994;28;19927;-65
2022/12/24 02:58:00;;;;;;;;;;;;;;;1.35;90.97;98837.00;5084251;28;19935;-65
2022/12/24 03:00:31;;;;;;;;;;;;;;;1.34;91.12;98841.56;5084296;28;19953;-65
2022/12/24 03:03:07;;;;;;;;;;;;;;;1.34;90.83;98840.75;5084862;28;19973;-64
2022/12/24 03:05:38;;;;;;;;;;;;;;;1.34;91.11;98832.66;5082871;28;20301;-65
2022/12/24 03:08:06;;;;;;;;;;;;;;;1.34;90.89;98829.97;5092818;28;20026;-65
2022/12/24 03:10:36;;;;;;;;;;;;;;;1.32;90.90;98827.50;5101903;28;20432;-67
2022/12/24 03:13:05;;;;;;;;;;;;;;;1.30;90.86;98836.91;5102299;28;19928;-65
2022/12/24 03:15:31;;;;;;;;;;;;;;;1.27;90.95;98836.31;5103792;28;19928;-65
2022/12/24 03:17:59;;;;;;;;;;;;;;;1.26;91.15;98836.53;5102704;28;19932;-65
2022/12/24 03:20:26;;;;;;;;;;;;;;;1.26;91.12;98823.06;5103038;28;19954;-64
2022/12/24 03:22:54;;;;;;;;;;;;;;;1.27;91.13;98830.09;5087172;28;20448;-65
2022/12/24 03:25:23;;;;;;;;;;;;;;;1.30;91.15;98839.59;5104612;28;19931;-65
2022/12/24 03:27:49;;;;;;;;;;;;;;;1.32;91.04;98853.63;5102939;28;19963;-65
2022/12/24 03:30:14;;;;;;;;;;;;;;;1.32;91.02;98854.44;5104816;28;20004;-65
2022/12/24 03:32:40;;;;;;;;;;;;;;;1.31;91.00;98858.19;5104351;28;19928;-65
2022/12/24 03:35:07;;;;;;;;;;;;;;;1.33;90.96;98853.41;5102193;28;19960;-65
2022/12/24 03:37:33;;;;;;;;;;;;;;;1.33;90.77;98861.50;5101347;28;20043;-65
2022/12/24 03:40:00;;;;;;;;;;;;;;;1.32;90.99;98849.06;5103145;28;20082;-64
2022/12/24 03:42:26;;;;;;;;;;;;;;;1.34;90.86;98857.75;5102445;28;19927;-64
2022/12/24 03:44:51;;;;;;;;;;;;;;;1.32;90.81;98840.16;5091517;28;20417;-65
2022/12/24 03:47:17;;;;;;;;;;;;;;;1.35;91.12;98848.59;5082137;28;19928;-67
2022/12/24 03:49:43;;;;;;;;;;;;;;;1.35;90.74;98839.69;5081236;28;20335;-64
2022/12/24 03:52:08;;;;;;;;;;;;;;;1.35;90.84;98845.06;5083603;28;19928;-65
2022/12/24 03:54:34;;;;;;;;;;;;;;;1.36;90.80;98841.31;5082724;28;19928;-65
2022/12/24 03:57:01;;;;;;;;;;;;;;;1.36;90.67;98855.63;5090052;28;20026;-66
2022/12/24 03:59:27;;;;;;;;;;;;;;;1.33;90.71;98850.72;5102925;28;20098;-65
2022/12/24 04:01:53;;;;;;;;;;;;;;;1.33;90.97;98857.97;5106451;28;20383;-65
2022/12/24 04:04:18;;;;;;;;;;;;;;;1.33;90.90;98855.28;5096091;28;19934;-65
2022/12/24 04:06:44;;;;;;;;;;;;;;;1.32;90.92;98853.63;5086774;28;20102;-66
2022/12/24 04:09:10;;;;;;;;;;;;;;;1.35;90.96;98858.53;5086587;28;19928;-65
2022/12/24 04:11:35;;;;;;;;;;;;;;;1.36;90.83;98846.72;5087614;28;20401;-66
2022/12/24 04:14:03;;;;;;;;;;;;;;;1.34;90.78;98848.81;5085184;28;20500;-66
2022/12/24 04:16:28;;;;;;;;;;;;;;;1.33;90.99;98844.50;5086461;28;20021;-65
2022/12/24 04:18:54;;;;;;;;;;;;;;;1.33;90.94;98841.81;5086820;28;19971;-66
2022/12/24 04:21:20;;;;;;;;;;;;;;;1.24;91.14;98834.06;5067802;28;20403;-65
2022/12/24 04:23:46;;;;;;;;;;;;;;;1.32;90.90;98837.47;5086410;28;19928;-65
2022/12/24 04:26:12;;;;;;;;;;;;;;;1.29;91.00;98852.22;5088360;28;19928;-65
2022/12/24 04:28:38;;;;;;;;;;;;;;;1.27;91.08;98827.41;5085379;28;19954;-65
2022/12/24 04:31:06;;;;;;;;;;;;;;;1.27;91.17;98830.94;5087137;28;20367;-66
2022/12/24 04:33:32;;;;;;;;;;;;;;;1.23;91.11;98823.56;5085267;28;20459;-66
2022/12/24 04:35:58;;;;;;;;;;;;;;;1.20;91.67;98818.66;5094890;28;19932;-65
2022/12/24 04:38:24;;;;;;;;;;;;;;;1.22;91.71;98816.53;5106261;28;19928;-65
2022/12/24 04:40:56;;;;;;;;;;;;;;;1.19;91.71;98825.09;5106512;28;19931;-65
2022/12/24 04:43:22;;;;;;;;;;;;;;;1.23;91.84;98810.09;5108816;28;20383;-65
2022/12/24 04:45:47;;;;;;;;;;;;;;;1.24;91.79;98815.22;5105773;28;19935;-65
2022/12/24 04:48:17;;;;;;;;;;;;;;;1.24;91.75;98812.53;5105247;28;20399;-65
2022/12/24 04:50:43;;;;;;;;;;;;;;;1.24;91.86;98812.53;5105425;28;19934;-65
2022/12/24 04:53:09;;;;;;;;;;;;;;;1.26;91.74;98823.91;5105158;28;19928;-65
2022/12/24 04:55:34;;;;;;;;;;;;;;;1.26;91.65;98823.06;5100981;28;20345;-65
2022/12/24 04:58:00;;;;;;;;;;;;;;;1.26;91.61;98829.28;5084797;28;19928;-65
2022/12/24 05:00:26;;;;;;;;;;;;;;;1.29;91.55;98827.19;5085819;28;19929;-65
2022/12/24 05:02:51;;;;;;;;;;;;;;;1.27;91.48;98825.53;5084671;28;19973;-65
2022/12/24 05:05:18;;;;;;;;;;;;;;;1.27;91.31;98814.78;5108118;28;20425;-66
2022/12/24 05:08:02;;;;;;;;;;;;;;;1.27;91.43;98819.31;5104823;28;19970;-68
2022/12/24 05:10:28;;;;;;;;;;;;;;;1.25;91.33;98816.06;5095159;28;19951;-67
2022/12/24 05:12:55;;;;;;;;;;;;;;;1.26;91.37;98813.13;5082911;28;20280;-68
2022/12/24 05:15:20;;;;;;;;;;;;;;;1.24;91.52;98800.94;5086208;28;19928;-67
2022/12/24 05:17:46;;;;;;;;;;;;;;;1.27;91.60;98795.09;5083329;28;19934;-65
2022/12/24 05:20:12;;;;;;;;;;;;;;;1.27;91.56;98797.78;5086845;28;19955;-64
2022/12/24 05:28:09;;;;;;;;;;;;;;;1.26;91.57;98809.59;5084797;28;19935;-65
2022/12/24 05:30:34;;;;;;;;;;;;;;;1.26;91.72;98809.59;5086212;28;19928;-65
2022/12/24 05:33:00;;;;;;;;;;;;;;;1.24;91.70;98804.44;4758493;27;9999723;-65
2022/12/24 05:35:26;;;;;;;;;;;;;;;1.22;92.04;98800.38;5102044;27;20028;-65
2022/12/24 05:37:56;;;;;;;;;;;;;;;1.17;92.11;98808.31;5082525;28;19935;-65
2022/12/24 05:40:21;;;;;;;;;;;;;;;1.14;92.28;98793.47;5084174;28;19972;-65
2022/12/24 05:42:48;;;;;;;;;;;;;;;1.12;92.74;98790.22;5094524;28;20039;-65
2022/12/24 05:45:14;;;;;;;;;;;;;;;1.11;92.65;98788.59;5096214;28;19971;-68
2022/12/24 05:47:40;;;;;;;;;;;;;;;1.10;92.84;98789.63;5097968;28;20008;-67
2022/12/24 05:50:06;;;;;;;;;;;;;;;1.05;93.24;98786.81;5093886;28;20061;-67
2022/12/24 05:52:32;;;;;;;;;;;;;;;0.99;93.38;98784.03;5098645;28;20313;-67
2022/12/24 05:54:59;;;;;;;;;;;;;;;1.01;93.69;98789.16;5087141;28;20729;-68
2022/12/24 05:57:25;;;;;;;;;;;;;;;1.04;93.79;98796.78;5096225;28;19980;-68
2022/12/24 05:59:50;;;;;;;;;;;;;;;1.02;93.99;98800.75;5094700;28;19927;-67
2022/12/24 06:02:16;;;;;;;;;;;;;;;0.98;94.07;98790.47;5091209;28;20280;-67
2022/12/24 06:04:42;;;;;;;;;;;;;;;0.95;94.29;98790.94;5081372;28;19928;-69
2022/12/24 06:07:07;;;;;;;;;;;;;;;0.96;94.42;98791.75;5086451;28;20026;-65
2022/12/24 06:09:33;;;;;;;;;;;;;;;0.94;94.66;98794.69;5103860;28;19928;-65
2022/12/24 06:12:00;;;;;;;;;;;;;;;0.91;94.70;98807.81;5105324;28;19973;-65
2022/12/24 06:14:26;;;;;;;;;;;;;;;0.90;94.94;98788.13;5104568;28;19935;-67
2022/12/24 06:16:52;;;;;;;;;;;;;;;0.93;95.23;98795.72;5104761;28;19927;-66
2022/12/24 06:19:18;;;;;;;;;;;;;;;0.93;95.10;98801.09;5089438;28;19971;-66
2022/12/24 06:21:43;;;;;;;;;;;;;;;0.97;95.17;98791.53;5085574;28;19928;-65
2022/12/24 06:24:12;;;;;;;;;;;;;;;0.96;95.00;98797.97;5088925;28;19928;-66
2022/12/24 06:26:38;;;;;;;;;;;;;;;0.96;95.19;98802.50;5087587;28;19988;-66
2022/12/24 06:29:05;;;;;;;;;;;;;;;0.97;95.11;98804.97;5080445;28;20620;-67
2022/12/24 06:31:31;;;;;;;;;;;;;;;0.98;95.27;98809.31;5082878;28;20391;-67
2022/12/24 06:33:57;;;;;;;;;;;;;;;1.04;95.38;98806.72;5091996;28;19928;-67
2022/12/24 06:36:23;;;;;;;;;;;;;;;1.05;95.04;98798.41;5096666;28;20265;-67
2022/12/24 06:38:49;;;;;;;;;;;;;;;1.05;95.19;98789.50;5098477;28;19940;-66
2022/12/24 06:41:16;;;;;;;;;;;;;;;1.04;95.52;98799.47;5087868;28;19997;-67
2022/12/24 06:43:42;;;;;;;;;;;;;;;1.01;95.31;98793.75;5085535;28;20080;-67
2022/12/24 06:46:10;;;;;;;;;;;;;;;1.03;95.49;98797.00;5082422;28;19978;-67
2022/12/24 06:48:35;;;;;;;;;;;;;;;1.05;95.54;98800.28;5087079;28;19932;-67
2022/12/24 06:51:02;;;;;;;;;;;;;;;0.99;95.43;98800.19;5097753;28;19928;-67
2022/12/24 06:53:28;;;;;;;;;;;;;;;1.03;95.69;98807.78;5101332;28;20034;-66
2022/12/24 06:55:59;;;;;;;;;;;;;;;1.09;95.72;98806.81;5085429;28;20023;-67
2022/12/24 06:58:25;;;;;;;;;;;;;;;1.10;95.51;98798.53;5084760;28;19932;-67
2022/12/24 07:00:51;;;;;;;;;;;;;;;1.08;95.32;98794.41;5085677;28;19935;-67
2022/12/24 07:03:18;;;;;;;;;;;;;;;1.09;95.18;98785.28;5094548;28;20369;-66
2022/12/24 07:05:43;;;;;;;;;;;;;;;1.08;95.04;98789.88;5084897;28;19975;-67
2022/12/24 07:08:09;;;;;;;;;;;;;;;1.10;95.11;98789.63;5086205;28;20093;-65
2022/12/24 07:10:35;;;;;;;;;;;;;;;1.08;95.13;98789.03;5087812;28;19932;-67
2022/12/24 07:13:00;;;;;;;;;;;;;;;1.11;95.15;98781.31;5082124;28;20314;-67
2022/12/24 07:15:26;;;;;;;;;;;;;;;1.15;95.01;98788.91;5088477;28;19981;-67
2022/12/24 07:17:51;;;;;;;;;;;;;;;1.15;95.04;98778.97;5101337;28;19931;-67
2022/12/24 07:20:19;;;;;;;;;;;;;;;1.13;94.88;98794.53;5102185;28;19928;-67
2022/12/24 07:22:44;;;;;;;;;;;;;;;1.10;94.83;98782.34;5102965;28;19934;-67
2022/12/24 07:25:10;;;;;;;;;;;;;;;1.08;94.99;98786.34;5104502;28;19928;-66
2022/12/24 07:27:36;;;;;;;;;;;;;;;1.05;95.00;98795.72;5100200;28;19932;-66
2022/12/24 07:30:02;;;;;;;;;;;;;;;1.01;95.16;98785.66;5103481;28;19935;-66
2022/12/24 07:32:29;;;;;;;;;;;;;;;1.03;95.48;98783.53;5106471;28;19927;-66
2022/12/24 07:34:54;;;;;;;;;;;;;;;1.04;95.30;98777.09;5098084;28;20385;-66
2022/12/24 07:37:21;;;;;;;;;;;;;;;1.09;95.42;98791.50;5093728;28;19973;-67
2022/12/24 07:39:47;;;;;;;;;;;;;;;1.09;95.29;98783.41;5080104;28;19928;-66
2022/12/24 07:42:13;;;;;;;;;;;;;;;1.15;95.32;98788.91;5103427;28;19928;-66
2022/12/24 07:44:39;;;;;;;;;;;;;;;1.18;95.21;98799.22;5091444;28;19932;-66
2022/12/24 07:47:04;;;;;;;;;;;;;;;1.21;95.19;98802.22;5107859;28;19977;-66
2022/12/24 07:49:30;;;;;;;;;;;;;;;1.25;95.08;98803.41;5104979;28;19970;-66
2022/12/24 07:51:56;;;;;;;;;;;;;;;1.23;94.96;98799.31;5108748;28;19984;-66
2022/12/24 07:54:24;;;;;;;;;;;;;;;1.22;94.77;98790.41;5091876;28;20441;-65
2022/12/24 07:56:49;;;;;;;;;;;;;;;1.18;94.67;98796.53;5109288;28;20616;-66
2022/12/24 07:59:15;;;;;;;;;;;;;;;1.11;94.82;98794.75;5103659;28;20022;-66
2022/12/24 08:01:41;;;;;;;;;;;;;;;1.12;94.94;98793.72;5109864;28;19928;-66
2022/12/24 08:04:07;;;;;;;;;;;;;;;1.12;95.00;98790.22;5103904;28;19928;-66
2022/12/24 08:06:32;;;;;;;;;;;;;;;1.15;95.13;98784.34;5086719;28;19935;-69
2022/12/24 08:08:58;;;;;;;;;;;;;;;1.18;95.11;98789.25;5090439;28;20432;-66
2022/12/24 08:11:25;;;;;;;;;;;;;;;1.23;95.06;98788.53;5088759;28;19928;-66
2022/12/24 08:13:51;;;;;;;;;;;;;;;1.24;94.88;98784.78;5097989;28;19935;-66
2022/12/24 08:16:17;;;;;;;;;;;;;;;1.27;94.92;98787.84;5097396;28;19934;-67
2022/12/24 08:18:43;;;;;;;;;;;;;;;1.29;94.64;98795.66;5089471;28;19935;-67
2022/12/24 08:21:09;;;;;;;;;;;;;;;1.26;94.47;98793.44;5097503;28;19988;-67
2022/12/24 08:23:34;;;;;;;;;;;;;;;1.25;94.46;98789.94;5101964;28;19973;-67
2022/12/24 08:26:00;;;;;;;;;;;;;;;1.25;94.63;98798.03;5095512;28;20386;-67
2022/12/24 08:28:27;;;;;;;;;;;;;;;1.24;94.59;98799.06;5084584;28;20051;-67
2022/12/24 08:30:53;;;;;;;;;;;;;;;1.26;94.33;98786.19;5086415;28;19991;-67
2022/12/24 08:33:19;;;;;;;;;;;;;;;1.27;94.25;98792.38;5084896;28;19964;-67
2022/12/24 08:35:48;;;;;;;;;;;;;;;1.25;94.13;98798.03;5086854;28;19935;-67
2022/12/24 08:38:13;;;;;;;;;;;;;;;1.24;94.02;98792.88;5089000;28;20035;-67
2022/12/24 08:40:39;;;;;;;;;;;;;;;1.21;93.94;98794.16;5089312;28;20019;-67
2022/12/24 08:43:05;;;;;;;;;;;;;;;1.21;93.96;98794.16;5086650;28;19986;-67
2022/12/24 08:45:32;;;;;;;;;;;;;;;1.18;93.80;98789.25;5090075;28;19932;-67
2022/12/24 08:47:58;;;;;;;;;;;;;;;1.20;93.95;98779.06;5089152;28;19934;-67
2022/12/24 08:50:24;;;;;;;;;;;;;;;1.19;93.93;98782.81;5089930;28;19928;-66
2022/12/24 08:52:49;;;;;;;;;;;;;;;1.03;94.06;98767.41;5087633;28;19936;-67
2022/12/24 08:55:15;;;;;;;;;;;;;;;1.09;94.51;98771.81;5089220;28;19940;-67
2022/12/24 08:57:41;;;;;;;;;;;;;;;0.96;94.93;98756.75;5074329;28;20003;-68
2022/12/24 09:00:08;;;;;;;;;;;;;;;1.07;94.82;98779.31;5088017;28;20436;-67
2022/12/24 09:02:36;;;;;;;;;;;;;;;1.06;94.91;98773.13;5091888;28;19955;-67
2022/12/24 09:05:02;;;;;;;;;;;;;;;1.01;94.67;98767.63;5069779;28;19951;-67
2022/12/24 09:07:28;;;;;;;;;;;;;;;1.02;94.59;98765.75;5108819;28;19928;-66
2022/12/24 09:09:54;;;;;;;;;;;;;;;1.00;94.57;98760.59;5111937;28;20060;-66
2022/12/24 09:12:19;;;;;;;;;;;;;;;1.01;94.21;98764.94;5106082;28;19927;-66
2022/12/24 09:14:45;;;;;;;;;;;;;;;1.02;94.34;98769.28;5102179;28;19927;-67
2022/12/24 09:17:11;;;;;;;;;;;;;;;1.02;94.09;98768.44;5086684;28;20428;-66
2022/12/24 09:19:38;;;;;;;;;;;;;;;1.03;94.15;98770.09;5105359;28;19932;-66
2022/12/24 09:22:04;;;;;;;;;;;;;;;1.03;94.02;98757.47;5107970;28;19972;-66
2022/12/24 09:24:30;;;;;;;;;;;;;;;1.06;93.79;98758.84;5104562;28;19928;-67
2022/12/24 09:26:56;;;;;;;;;;;;;;;1.05;93.82;98763.41;5106451;28;19934;-66
2022/12/24 09:29:22;;;;;;;;;;;;;;;1.05;93.80;98749.94;5093847;28;19928;-67
2022/12/24 09:31:48;;;;;;;;;;;;;;;1.07;93.35;98753.22;5085325;28;20442;-67
2022/12/24 09:34:14;;;;;;;;;;;;;;;1.10;93.38;98747.34;5086189;28;19973;-66
2022/12/24 09:36:41;;;;;;;;;;;;;;;1.11;93.24;98750.88;5087180;28;19928;-67
2022/12/24 09:39:07;;;;;;;;;;;;;;;1.07;92.91;98755.09;5083354;28;19928;-67
2022/12/24 09:41:39;;;;;;;;;;;;;;;1.04;92.93;98763.63;5098507;28;19934;-67
2022/12/24 09:44:11;;;;;;;;;;;;;;;1.04;92.96;98763.63;5104040;28;19965;-67
2022/12/24 09:46:38;;;;;;;;;;;;;;;1.05;92.85;98746.44;5073860;28;19935;-67
2022/12/24 09:49:09;;;;;;;;;;;;;;;1.03;92.81;98743.16;5084682;28;19930;-66
2022/12/24 09:51:38;;;;;;;;;;;;;;;1.02;92.64;98747.75;5087261;28;20322;-67
2022/12/24 09:54:10;;;;;;;;;;;;;;;1.06;92.89;98753.44;5069058;28;19935;-66
2022/12/24 09:56:38;;;;;;;;;;;;;;;1.04;92.62;98745.63;5075684;28;19935;-66
2022/12/24 09:59:04;;;;;;;;;;;;;;;1.06;92.95;98737.28;5072637;28;19928;-66
2022/12/24 10:01:32;;;;;;;;;;;;;;;1.06;93.04;98738.13;5081661;28;20349;-66
2022/12/24 10:04:00;;;;;;;;;;;;;;;1.06;92.77;98746.19;5100574;28;19928;-66
2022/12/24 10:06:29;;;;;;;;;;;;;;;1.05;93.07;98739.19;5085937;28;20735;-66
2022/12/24 10:09:01;;;;;;;;;;;;;;;1.09;93.07;98739.50;5080956;28;19988;-66
2022/12/24 10:11:35;;;;;;;;;;;;;;;1.09;92.92;98740.34;5099197;28;20466;-66
2022/12/24 10:14:10;;;;;;;;;;;;;;;1.09;93.10;98744.88;5107413;28;20023;-66
2022/12/24 10:16:40;;;;;;;;;;;;;;;1.12;93.23;98744.44;5106280;28;19932;-66
2022/12/24 10:19:11;;;;;;;;;;;;;;;1.10;92.92;98743.88;5090787;28;19927;-66
2022/12/24 10:21:44;;;;;;;;;;;;;;;1.03;92.94;98741.31;5099082;28;19943;-66
2022/12/24 10:24:14;;;;;;;;;;;;;;;1.04;93.28;98752.88;5109162;28;19935;-66
2022/12/24 10:26:43;;;;;;;;;;;;;;;1.06;93.49;98745.38;5107843;28;20390;-66
2022/12/24 10:29:12;;;;;;;;;;;;;;;1.09;93.67;98739.50;5106236;28;20481;-66
2022/12/24 10:31:40;;;;;;;;;;;;;;;1.13;93.95;98744.19;5104819;28;19928;-67
2022/12/24 10:34:11;;;;;;;;;;;;;;;1.13;93.80;98743.38;5106349;28;19928;-66
2022/12/24 10:36:36;;;;;;;;;;;;;;;1.18;94.09;98737.28;5106762;28;19931;-66
2022/12/24 10:39:02;;;;;;;;;;;;;;;1.18;93.77;98740.78;5105935;28;19979;-66
2022/12/24 10:41:29;;;;;;;;;;;;;;;1.12;93.63;98737.16;5087095;28;20034;-66
2022/12/24 10:43:58;;;;;;;;;;;;;;;1.10;93.82;98736.59;5103164;28;20398;-66
2022/12/24 10:46:28;;;;;;;;;;;;;;;1.08;93.94;98741.41;5106719;28;19928;-66
2022/12/24 10:48:56;;;;;;;;;;;;;;;1.11;94.30;98742.81;5106020;28;19928;-67
2022/12/24 10:51:29;;;;;;;;;;;;;;;1.08;94.70;98745.94;5107717;28;20367;-66
2022/12/24 10:53:57;;;;;;;;;;;;;;;1.05;94.98;98741.88;5102444;28;20038;-66
2022/12/24 10:56:23;;;;;;;;;;;;;;;1.07;95.53;98749.69;5106012;28;19928;-67
2022/12/24 10:58:51;;;;;;;;;;;;;;;1.04;95.48;98745.63;5106450;28;20386;-66
2022/12/24 11:01:18;;;;;;;;;;;;;;;1.02;95.80;98755.81;5106509;28;19931;-66
2022/12/24 11:03:44;;;;;;;;;;;;;;;1.00;95.66;98752.53;5104091;28;19928;-67
2022/12/24 11:06:11;;;;;;;;;;;;;;;0.99;95.78;98746.34;5105179;28;20390;-66
2022/12/24 11:08:39;;;;;;;;;;;;;;;0.99;95.62;98749.03;5111781;27;19934;-66
2022/12/24 11:11:06;;;;;;;;;;;;;;;1.05;95.75;98755.34;5110327;28;19934;-66
2022/12/24 11:13:33;;;;;;;;;;;;;;;1.08;95.66;98754.84;5112748;28;19927;-66
2022/12/24 11:16:00;;;;;;;;;;;;;;;1.10;95.63;98763.50;5107449;28;19935;-66
2022/12/24 11:18:28;;;;;;;;;;;;;;;1.11;95.47;98758.97;5100479;28;19951;-66
2022/12/24 11:20:54;;;;;;;;;;;;;;;1.12;95.47;98763.28;5091635;28;19936;-66
2022/12/24 11:23:21;;;;;;;;;;;;;;;1.12;95.39;98761.41;5090664;28;19928;-66
2022/12/24 11:25:49;;;;;;;;;;;;;;;1.13;95.30;98765.72;5098576;28;19939;-66
2022/12/24 11:28:19;;;;;;;;;;;;;;;1.13;95.28;98754.94;5110447;28;19985;-66
2022/12/24 11:30:54;;;;;;;;;;;;;;;1.15;95.38;98770.06;5107507;28;19980;-66
2022/12/24 11:33:20;;;;;;;;;;;;;;;1.19;95.09;98768.53;5109182;28;20026;-66
2022/12/24 11:35:50;;;;;;;;;;;;;;;1.22;95.15;98763.47;5109843;28;19928;-66
2022/12/24 11:38:20;;;;;;;;;;;;;;;1.25;94.64;98778.34;5109937;28;19927;-67
2022/12/24 11:40:47;;;;;;;;;;;;;;;1.23;94.43;98775.06;5088097;28;20441;-67
2022/12/24 11:43:14;;;;;;;;;;;;;;;1.24;94.33;98771.31;5090082;28;19935;-67
2022/12/24 11:45:46;;;;;;;;;;;;;;;1.24;94.38;98774.03;5091617;28;19931;-67
2022/12/24 11:48:23;;;;;;;;;;;;;;;1.23;94.18;98783.97;5089508;28;19928;-66
2022/12/24 11:50:54;;;;;;;;;;;;;;;1.15;94.17;98784.34;5090402;28;19928;-67
2022/12/24 11:53:23;;;;;;;;;;;;;;;1.10;94.38;98792.31;5090279;28;19928;-66
2022/12/24 11:55:50;;;;;;;;;;;;;;;1.07;94.47;98793.63;5092423;28;19928;-66
2022/12/24 11:58:19;;;;;;;;;;;;;;;1.10;94.52;98797.72;5090913;28;19966;-66
2022/12/24 12:00:45;;;;;;;;;;;;;;;1.05;94.39;98800.28;5092896;28;20034;-66
2022/12/24 12:03:19;;;;;;;;;;;;;;;1.01;94.57;98808.00;5088656;28;19927;-66
2022/12/24 12:05:45;;;;;;;;;;;;;;;0.97;94.72;98799.59;5079550;28;20031;-66
2022/12/24 12:08:17;;;;;;;;;;;;;;;0.98;94.76;98803.09;5091595;28;20031;-66
2022/12/24 12:10:44;;;;;;;;;;;;;;;1.02;94.78;98815.06;5093330;28;20318;-66
2022/12/24 12:13:11;;;;;;;;;;;;;;;1.01;94.78;98813.38;5090612;28;19928;-66
2022/12/24 12:15:40;;;;;;;;;;;;;;;1.01;94.64;98809.88;5091962;28;20022;-66
2022/12/24 12:18:08;;;;;;;;;;;;;;;0.96;94.59;98806.03;5088607;28;20042;-66
2022/12/24 12:20:34;;;;;;;;;;;;;;;0.94;94.69;98815.41;5089784;28;19951;-66
2022/12/24 12:23:03;;;;;;;;;;;;;;;0.91;94.74;98810.50;5088500;28;19981;-66
2022/12/24 12:25:33;;;;;;;;;;;;;;;0.92;94.72;98826.38;5089490;28;20403;-66
2022/12/24 12:28:00;;;;;;;;;;;;;;;0.90;94.73;98815.03;5089046;28;20008;-66
2022/12/24 12:30:28;;;;;;;;;;;;;;;0.93;94.92;98822.63;5088162;28;20026;-66
2022/12/24 12:32:58;;;;;;;;;;;;;;;0.91;94.49;98829.34;5101907;28;20030;-66
2022/12/24 12:35:25;;;;;;;;;;;;;;;0.93;94.24;98830.72;5088108;28;20320;-66
2022/12/24 12:37:54;;;;;;;;;;;;;;;0.92;93.86;98839.03;5086390;28;20337;-66
2022/12/24 12:40:26;;;;;;;;;;;;;;;0.91;93.56;98843.59;5088150;28;20303;-66
2022/12/24 12:43:00;;;;;;;;;;;;;;;0.97;93.39;98842.66;5087341;28;19963;-66
2022/12/24 12:45:38;;;;;;;;;;;;;;;1.01;92.82;98850.28;5087816;28;20333;-66
2022/12/24 12:48:15;;;;;;;;;;;;;;;0.99;92.88;98847.81;5086176;28;20023;-65
2022/12/24 12:50:45;;;;;;;;;;;;;;;1.03;92.62;98845.47;5088701;28;20013;-66
2022/12/24 12:53:31;;;;;;;;;;;;;;;1.05;91.94;98854.13;5087357;28;20448;-66
2022/12/24 12:56:01;;;;;;;;;;;;;;;1.02;91.96;98847.34;5081370;28;19935;-66
2022/12/24 12:58:32;;;;;;;;;;;;;;;1.09;92.08;98850.72;5086888;28;20417;-66
2022/12/24 13:01:00;;;;;;;;;;;;;;;1.12;91.56;98850.25;5087212;28;19950;-66
2022/12/24 13:03:50;;;;;;;;;;;;;;;1.09;91.29;98860.66;5088412;28;20031;-66
2022/12/24 13:06:33;;;;;;;;;;;;;;;1.10;91.42;98865.03;5089592;28;19935;-66
2022/12/24 13:09:11;;;;;;;;;;;;;;;1.10;91.39;98860.44;5087062;28;19928;-66